sensor_id;sensor_type;location;lat;lon;timestamp;temperature;humidity
52697;DHT22;38593;52.670;6.286;2022-07-03T00:01:39;18.70;99.90
52697;DHT22;38593;52.670;6.286;2022-07-03T00:04:05;18.70;99.90
52697;DHT22;38593;52.670;6.286;2022-07-03T00:06:31;18.60;99.90
52697;DHT22;38593;52.670;6.286;2022-07-03T00:08:57;18.60;99.90
52697;DHT22;38593;52.670;6.286;2022-07-03T00:11:23;18.60;99.90
52697;DHT22;38593;52.670;6.286;2022-07-03T00:13:49;18.50;99.90
52697;DHT22;38593;52.670;6.286;2022-07-03T00:16:14;18.50;99.90
52697;DHT22;38593;52.670;6.286;2022-07-03T00:18:40;18.40;99.90
52697;DHT22;38593;52.670;6.286;2022-07-03T00:21:07;18.40;99.90
52697;DHT22;38593;52.670;6.286;2022-07-03T00:23:52;18.40;99.90
52697;DHT22;38593;52.670;6.286;2022-07-03T00:26:18;18.40;99.90
52697;DHT22;38593;52.670;6.286;2022-07-03T00:28:44;18.30;99.90
52697;DHT22;38593;52.670;6.286;2022-07-03T00:31:10;18.20;99.90
52697;DHT22;38593;52.670;6.286;2022-07-03T00:33:36;18.20;99.90
52697;DHT22;38593;52.670;6.286;2022-07-03T00:36:02;18.10;99.90
52697;DHT22;38593;52.670;6.286;2022-07-03T00:38:28;18.10;99.90
52697;DHT22;38593;52.670;6.286;2022-07-03T00:40:54;18.10;99.90
52697;DHT22;38593;52.670;6.286;2022-07-03T00:43:19;18.10;99.90
52697;DHT22;38593;52.670;6.286;2022-07-03T00:45:49;18.10;99.90
52697;DHT22;38593;52.670;6.286;2022-07-03T00:48:16;18.00;99.90
52697;DHT22;38593;52.670;6.286;2022-07-03T00:50:45;18.00;99.90
52697;DHT22;38593;52.670;6.286;2022-07-03T00:53:10;17.90;99.90
52697;DHT22;38593;52.670;6.286;2022-07-03T00:55:37;17.80;99.90
52697;DHT22;38593;52.670;6.286;2022-07-03T00:58:04;17.80;99.90
52697;DHT22;38593;52.670;6.286;2022-07-03T01:00:30;17.70;99.90
52697;DHT22;38593;52.670;6.286;2022-07-03T01:02:58;17.60;99.90
52697;DHT22;38593;52.670;6.286;2022-07-03T01:05:38;17.60;99.90
52697;DHT22;38593;52.670;6.286;2022-07-03T01:08:11;17.50;99.90
52697;DHT22;38593;52.670;6.286;2022-07-03T01:15:58;17.40;99.90
52697;DHT22;38593;52.670;6.286;2022-07-03T01:21:04;17.30;99.90
52697;DHT22;38593;52.670;6.286;2022-07-03T01:23:37;17.30;99.90
52697;DHT22;38593;52.670;6.286;2022-07-03T01:26:07;17.30;99.90
52697;DHT22;38593;52.670;6.286;2022-07-03T01:28:33;17.20;99.90
52697;DHT22;38593;52.670;6.286;2022-07-03T01:31:01;17.20;99.90
52697;DHT22;38593;52.670;6.286;2022-07-03T01:33:30;17.10;99.90
52697;DHT22;38593;52.670;6.286;2022-07-03T01:36:04;17.10;99.90
52697;DHT22;38593;52.670;6.286;2022-07-03T01:38:39;17.10;99.90
52697;DHT22;38593;52.670;6.286;2022-07-03T01:41:08;17.00;99.90
52697;DHT22;38593;52.670;6.286;2022-07-03T01:43:36;17.00;99.90
52697;DHT22;38593;52.670;6.286;2022-07-03T01:46:02;16.90;99.90
52697;DHT22;38593;52.670;6.286;2022-07-03T01:48:28;16.90;99.90
52697;DHT22;38593;52.670;6.286;2022-07-03T01:50:54;16.90;99.90
52697;DHT22;38593;52.670;6.286;2022-07-03T01:53:20;16.90;99.90
52697;DHT22;38593;52.670;6.286;2022-07-03T01:55:48;16.90;99.90
52697;DHT22;38593;52.670;6.286;2022-07-03T01:58:15;16.80;99.90
52697;DHT22;38593;52.670;6.286;2022-07-03T02:03:26;16.80;99.90
52697;DHT22;38593;52.670;6.286;2022-07-03T02:06:35;16.70;99.90
52697;DHT22;38593;52.670;6.286;2022-07-03T02:08:48;16.70;99.90
52697;DHT22;38593;52.670;6.286;2022-07-03T02:13:44;16.80;99.90
52697;DHT22;38593;52.670;6.286;2022-07-03T02:16:16;16.70;99.90
52697;DHT22;38593;52.670;6.286;2022-07-03T02:18:43;16.70;99.90
52697;DHT22;38593;52.670;6.286;2022-07-03T02:21:17;16.70;99.90
52697;DHT22;38593;52.670;6.286;2022-07-03T02:23:51;16.60;99.90
52697;DHT22;38593;52.670;6.286;2022-07-03T02:26:18;16.60;99.90
52697;DHT22;38593;52.670;6.286;2022-07-03T02:28:58;16.60;99.90
52697;DHT22;38593;52.670;6.286;2022-07-03T02:31:24;16.50;99.90
52697;DHT22;38593;52.670;6.286;2022-07-03T02:33:54;16.50;99.90
52697;DHT22;38593;52.670;6.286;2022-07-03T02:36:20;16.50;99.90
52697;DHT22;38593;52.670;6.286;2022-07-03T02:38:47;16.50;99.90
52697;DHT22;38593;52.670;6.286;2022-07-03T02:41:21;16.40;99.90
52697;DHT22;38593;52.670;6.286;2022-07-03T02:43:54;16.40;99.90
52697;DHT22;38593;52.670;6.286;2022-07-03T02:46:34;16.40;99.90
52697;DHT22;38593;52.670;6.286;2022-07-03T02:49:37;16.40;99.90
52697;DHT22;38593;52.670;6.286;2022-07-03T02:54:51;16.30;99.90
52697;DHT22;38593;52.670;6.286;2022-07-03T02:57:17;16.30;99.90
52697;DHT22;38593;52.670;6.286;2022-07-03T03:04:49;16.30;99.90
52697;DHT22;38593;52.670;6.286;2022-07-03T03:07:17;16.40;99.90
52697;DHT22;38593;52.670;6.286;2022-07-03T03:09:44;16.40;99.90
52697;DHT22;38593;52.670;6.286;2022-07-03T03:12:10;16.50;99.90
52697;DHT22;38593;52.670;6.286;2022-07-03T03:14:40;16.60;99.90
52697;DHT22;38593;52.670;6.286;2022-07-03T03:17:06;16.50;99.90
52697;DHT22;38593;52.670;6.286;2022-07-03T03:19:33;16.60;99.90
52697;DHT22;38593;52.670;6.286;2022-07-03T03:22:16;16.60;99.90
52697;DHT22;38593;52.670;6.286;2022-07-03T03:24:42;16.50;99.90
52697;DHT22;38593;52.670;6.286;2022-07-03T03:27:08;16.50;99.90
52697;DHT22;38593;52.670;6.286;2022-07-03T03:29:34;16.60;99.90
52697;DHT22;38593;52.670;6.286;2022-07-03T03:31:59;16.50;99.90
52697;DHT22;38593;52.670;6.286;2022-07-03T03:34:25;16.50;99.90
52697;DHT22;38593;52.670;6.286;2022-07-03T03:36:51;16.50;99.90
52697;DHT22;38593;52.670;6.286;2022-07-03T03:39:17;16.50;99.90
52697;DHT22;38593;52.670;6.286;2022-07-03T03:41:42;16.60;99.90
52697;DHT22;38593;52.670;6.286;2022-07-03T03:44:08;16.60;99.90
52697;DHT22;38593;52.670;6.286;2022-07-03T03:46:33;16.60;99.90
52697;DHT22;38593;52.670;6.286;2022-07-03T03:48:59;16.60;99.90
52697;DHT22;38593;52.670;6.286;2022-07-03T03:51:24;16.60;99.90
52697;DHT22;38593;52.670;6.286;2022-07-03T03:53:50;16.50;99.90
52697;DHT22;38593;52.670;6.286;2022-07-03T03:56:15;16.50;99.90
52697;DHT22;38593;52.670;6.286;2022-07-03T03:58:42;16.50;99.90
52697;DHT22;38593;52.670;6.286;2022-07-03T04:01:08;16.50;99.90
52697;DHT22;38593;52.670;6.286;2022-07-03T04:03:34;16.50;99.90
52697;DHT22;38593;52.670;6.286;2022-07-03T04:06:00;16.50;99.90
52697;DHT22;38593;52.670;6.286;2022-07-03T04:08:26;16.50;99.90
52697;DHT22;38593;52.670;6.286;2022-07-03T04:10:52;16.50;99.90
52697;DHT22;38593;52.670;6.286;2022-07-03T04:13:18;16.50;99.90
52697;DHT22;38593;52.670;6.286;2022-07-03T04:15:50;16.50;99.90
52697;DHT22;38593;52.670;6.286;2022-07-03T04:18:15;16.50;99.90
52697;DHT22;38593;52.670;6.286;2022-07-03T04:20:41;16.50;99.90
52697;DHT22;38593;52.670;6.286;2022-07-03T04:23:07;16.40;99.90
52697;DHT22;38593;52.670;6.286;2022-07-03T04:25:32;16.40;99.90
52697;DHT22;38593;52.670;6.286;2022-07-03T04:27:58;16.40;99.90
52697;DHT22;38593;52.670;6.286;2022-07-03T04:30:24;16.40;99.90
52697;DHT22;38593;52.670;6.286;2022-07-03T04:32:49;16.40;99.90
52697;DHT22;38593;52.670;6.286;2022-07-03T04:35:15;16.40;99.90
52697;DHT22;38593;52.670;6.286;2022-07-03T04:37:41;16.40;99.90
52697;DHT22;38593;52.670;6.286;2022-07-03T04:40:07;16.40;99.90
52697;DHT22;38593;52.670;6.286;2022-07-03T04:42:33;16.30;99.90
52697;DHT22;38593;52.670;6.286;2022-07-03T04:44:58;16.30;99.90
52697;DHT22;38593;52.670;6.286;2022-07-03T04:47:24;16.30;99.90
52697;DHT22;38593;52.670;6.286;2022-07-03T04:49:49;16.30;99.90
52697;DHT22;38593;52.670;6.286;2022-07-03T04:52:15;16.30;99.90
52697;DHT22;38593;52.670;6.286;2022-07-03T04:54:41;16.30;99.90
52697;DHT22;38593;52.670;6.286;2022-07-03T04:57:07;16.30;99.90
52697;DHT22;38593;52.670;6.286;2022-07-03T04:59:32;16.30;99.90
52697;DHT22;38593;52.670;6.286;2022-07-03T05:01:58;16.30;99.90
52697;DHT22;38593;52.670;6.286;2022-07-03T05:04:23;16.40;99.90
52697;DHT22;38593;52.670;6.286;2022-07-03T05:06:49;16.40;99.90
52697;DHT22;38593;52.670;6.286;2022-07-03T05:09:15;16.50;99.90
52697;DHT22;38593;52.670;6.286;2022-07-03T05:11:40;16.60;99.90
52697;DHT22;38593;52.670;6.286;2022-07-03T05:14:06;16.60;99.90
52697;DHT22;38593;52.670;6.286;2022-07-03T05:16:32;16.70;99.90
52697;DHT22;38593;52.670;6.286;2022-07-03T05:18:57;16.70;99.90
52697;DHT22;38593;52.670;6.286;2022-07-03T05:21:23;16.80;99.90
52697;DHT22;38593;52.670;6.286;2022-07-03T05:23:48;16.80;99.90
52697;DHT22;38593;52.670;6.286;2022-07-03T05:26:14;16.90;99.90
52697;DHT22;38593;52.670;6.286;2022-07-03T05:28:40;17.00;99.90
52697;DHT22;38593;52.670;6.286;2022-07-03T05:31:05;17.00;99.90
52697;DHT22;38593;52.670;6.286;2022-07-03T05:33:31;17.10;99.90
52697;DHT22;38593;52.670;6.286;2022-07-03T05:35:57;17.20;99.90
52697;DHT22;38593;52.670;6.286;2022-07-03T05:38:22;17.30;99.90
52697;DHT22;38593;52.670;6.286;2022-07-03T05:41:06;17.40;99.90
52697;DHT22;38593;52.670;6.286;2022-07-03T05:43:32;17.50;99.90
52697;DHT22;38593;52.670;6.286;2022-07-03T05:45:58;17.50;99.90
52697;DHT22;38593;52.670;6.286;2022-07-03T05:48:23;17.60;99.90
52697;DHT22;38593;52.670;6.286;2022-07-03T05:50:49;17.70;99.90
52697;DHT22;38593;52.670;6.286;2022-07-03T05:53:14;17.80;99.90
52697;DHT22;38593;52.670;6.286;2022-07-03T05:55:40;17.80;99.90
52697;DHT22;38593;52.670;6.286;2022-07-03T05:58:05;17.90;99.90
52697;DHT22;38593;52.670;6.286;2022-07-03T06:00:31;18.00;99.90
52697;DHT22;38593;52.670;6.286;2022-07-03T06:02:56;17.90;99.90
52697;DHT22;38593;52.670;6.286;2022-07-03T06:05:22;18.10;99.90
52697;DHT22;38593;52.670;6.286;2022-07-03T06:07:47;18.20;99.90
52697;DHT22;38593;52.670;6.286;2022-07-03T06:10:15;18.20;99.90
52697;DHT22;38593;52.670;6.286;2022-07-03T06:12:40;18.40;99.90
52697;DHT22;38593;52.670;6.286;2022-07-03T06:15:06;18.50;99.90
52697;DHT22;38593;52.670;6.286;2022-07-03T06:17:33;18.60;99.90
52697;DHT22;38593;52.670;6.286;2022-07-03T06:19:59;18.70;99.90
52697;DHT22;38593;52.670;6.286;2022-07-03T06:22:24;18.80;99.90
52697;DHT22;38593;52.670;6.286;2022-07-03T06:24:50;18.90;99.90
52697;DHT22;38593;52.670;6.286;2022-07-03T06:27:15;18.90;99.90
52697;DHT22;38593;52.670;6.286;2022-07-03T06:29:41;18.90;99.90
52697;DHT22;38593;52.670;6.286;2022-07-03T06:32:07;19.00;99.90
52697;DHT22;38593;52.670;6.286;2022-07-03T06:34:33;19.00;99.90
52697;DHT22;38593;52.670;6.286;2022-07-03T06:36:58;19.10;99.90
52697;DHT22;38593;52.670;6.286;2022-07-03T06:39:24;19.10;99.90
52697;DHT22;38593;52.670;6.286;2022-07-03T06:41:49;19.10;99.90
52697;DHT22;38593;52.670;6.286;2022-07-03T06:44:15;19.00;99.90
52697;DHT22;38593;52.670;6.286;2022-07-03T06:46:40;19.00;99.90
52697;DHT22;38593;52.670;6.286;2022-07-03T06:49:06;19.10;99.90
52697;DHT22;38593;52.670;6.286;2022-07-03T06:51:31;19.10;99.90
52697;DHT22;38593;52.670;6.286;2022-07-03T06:53:59;19.10;99.90
52697;DHT22;38593;52.670;6.286;2022-07-03T06:56:24;19.30;99.90
52697;DHT22;38593;52.670;6.286;2022-07-03T06:58:50;19.30;99.90
52697;DHT22;38593;52.670;6.286;2022-07-03T07:01:15;19.50;99.90
52697;DHT22;38593;52.670;6.286;2022-07-03T07:03:41;19.50;99.90
52697;DHT22;38593;52.670;6.286;2022-07-03T07:06:07;19.60;99.90
52697;DHT22;38593;52.670;6.286;2022-07-03T07:08:32;19.70;99.90
52697;DHT22;38593;52.670;6.286;2022-07-03T07:10:57;19.80;99.90
52697;DHT22;38593;52.670;6.286;2022-07-03T07:13:23;19.80;99.90
52697;DHT22;38593;52.670;6.286;2022-07-03T07:15:49;19.90;99.90
52697;DHT22;38593;52.670;6.286;2022-07-03T07:18:14;19.90;99.90
52697;DHT22;38593;52.670;6.286;2022-07-03T07:20:39;20.00;99.90
52697;DHT22;38593;52.670;6.286;2022-07-03T07:23:05;20.00;99.90
52697;DHT22;38593;52.670;6.286;2022-07-03T07:25:31;20.00;99.90
52697;DHT22;38593;52.670;6.286;2022-07-03T07:27:57;20.10;99.90
52697;DHT22;38593;52.670;6.286;2022-07-03T07:30:22;20.10;99.90
52697;DHT22;38593;52.670;6.286;2022-07-03T07:32:48;20.10;99.90
52697;DHT22;38593;52.670;6.286;2022-07-03T07:35:13;20.10;99.90
52697;DHT22;38593;52.670;6.286;2022-07-03T07:37:39;20.10;99.90
52697;DHT22;38593;52.670;6.286;2022-07-03T07:40:04;20.10;99.90
52697;DHT22;38593;52.670;6.286;2022-07-03T07:42:30;20.00;99.90
52697;DHT22;38593;52.670;6.286;2022-07-03T07:44:55;20.00;99.90
52697;DHT22;38593;52.670;6.286;2022-07-03T07:47:21;19.70;99.90
52697;DHT22;38593;52.670;6.286;2022-07-03T07:49:47;19.70;99.90
52697;DHT22;38593;52.670;6.286;2022-07-03T07:52:12;19.60;99.90
52697;DHT22;38593;52.670;6.286;2022-07-03T07:54:38;19.60;99.90
52697;DHT22;38593;52.670;6.286;2022-07-03T07:57:04;19.50;99.90
52697;DHT22;38593;52.670;6.286;2022-07-03T07:59:29;19.60;99.90
52697;DHT22;38593;52.670;6.286;2022-07-03T08:01:56;19.80;99.90
52697;DHT22;38593;52.670;6.286;2022-07-03T08:04:40;20.00;99.90
52697;DHT22;38593;52.670;6.286;2022-07-03T08:07:25;20.20;99.90
52697;DHT22;38593;52.670;6.286;2022-07-03T08:09:50;20.30;99.90
52697;DHT22;38593;52.670;6.286;2022-07-03T08:12:18;20.40;99.90
52697;DHT22;38593;52.670;6.286;2022-07-03T08:14:44;20.60;99.90
52697;DHT22;38593;52.670;6.286;2022-07-03T08:17:09;20.50;99.90
52697;DHT22;38593;52.670;6.286;2022-07-03T08:19:35;20.70;99.90
52697;DHT22;38593;52.670;6.286;2022-07-03T08:22:00;20.70;99.90
52697;DHT22;38593;52.670;6.286;2022-07-03T08:24:26;20.80;99.90
52697;DHT22;38593;52.670;6.286;2022-07-03T08:26:52;21.00;99.90
52697;DHT22;38593;52.670;6.286;2022-07-03T08:29:18;21.20;99.90
52697;DHT22;38593;52.670;6.286;2022-07-03T08:31:43;21.20;99.90
52697;DHT22;38593;52.670;6.286;2022-07-03T08:34:09;21.30;99.90
52697;DHT22;38593;52.670;6.286;2022-07-03T08:36:39;21.30;99.90
52697;DHT22;38593;52.670;6.286;2022-07-03T08:39:05;21.40;99.90
52697;DHT22;38593;52.670;6.286;2022-07-03T08:41:30;21.60;99.90
52697;DHT22;38593;52.670;6.286;2022-07-03T08:43:57;21.80;99.90
52697;DHT22;38593;52.670;6.286;2022-07-03T08:46:24;22.00;99.90
52697;DHT22;38593;52.670;6.286;2022-07-03T08:48:51;22.00;99.90
52697;DHT22;38593;52.670;6.286;2022-07-03T08:51:19;22.30;99.90
52697;DHT22;38593;52.670;6.286;2022-07-03T08:53:44;22.30;99.50
52697;DHT22;38593;52.670;6.286;2022-07-03T08:56:10;22.30;97.70
52697;DHT22;38593;52.670;6.286;2022-07-03T08:58:36;22.40;97.60
52697;DHT22;38593;52.670;6.286;2022-07-03T09:01:01;22.50;97.00
52697;DHT22;38593;52.670;6.286;2022-07-03T09:03:27;22.60;96.10
52697;DHT22;38593;52.670;6.286;2022-07-03T09:05:53;22.50;96.70
52697;DHT22;38593;52.670;6.286;2022-07-03T09:08:18;22.50;96.80
52697;DHT22;38593;52.670;6.286;2022-07-03T09:10:44;22.60;97.10
52697;DHT22;38593;52.670;6.286;2022-07-03T09:13:10;22.70;96.70
52697;DHT22;38593;52.670;6.286;2022-07-03T09:15:36;22.80;96.70
52697;DHT22;38593;52.670;6.286;2022-07-03T09:18:05;22.90;96.80
52697;DHT22;38593;52.670;6.286;2022-07-03T09:20:38;23.00;95.70
52697;DHT22;38593;52.670;6.286;2022-07-03T09:23:11;23.00;95.20
52697;DHT22;38593;52.670;6.286;2022-07-03T09:28:22;23.30;94.60
52697;DHT22;38593;52.670;6.286;2022-07-03T09:31:00;23.40;94.80
52697;DHT22;38593;52.670;6.286;2022-07-03T09:33:26;23.50;94.30
52697;DHT22;38593;52.670;6.286;2022-07-03T09:35:52;23.50;93.80
52697;DHT22;38593;52.670;6.286;2022-07-03T09:38:18;23.30;93.80
52697;DHT22;38593;52.670;6.286;2022-07-03T09:40:47;23.20;93.90
52697;DHT22;38593;52.670;6.286;2022-07-03T09:43:13;23.30;94.50
52697;DHT22;38593;52.670;6.286;2022-07-03T09:45:49;23.20;94.40
52697;DHT22;38593;52.670;6.286;2022-07-03T09:50:50;22.80;94.80
52697;DHT22;38593;52.670;6.286;2022-07-03T09:53:42;22.90;94.50
52697;DHT22;38593;52.670;6.286;2022-07-03T09:56:08;22.90;94.40
52697;DHT22;38593;52.670;6.286;2022-07-03T09:58:33;23.20;93.30
52697;DHT22;38593;52.670;6.286;2022-07-03T10:01:14;23.30;93.00
52697;DHT22;38593;52.670;6.286;2022-07-03T10:03:40;23.30;92.70
52697;DHT22;38593;52.670;6.286;2022-07-03T10:06:06;23.30;93.30
52697;DHT22;38593;52.670;6.286;2022-07-03T10:08:31;23.20;93.60
52697;DHT22;38593;52.670;6.286;2022-07-03T10:10:57;23.00;93.60
52697;DHT22;38593;52.670;6.286;2022-07-03T10:13:23;22.90;93.30
52697;DHT22;38593;52.670;6.286;2022-07-03T10:15:48;23.00;93.20
52697;DHT22;38593;52.670;6.286;2022-07-03T10:18:15;23.20;92.90
52697;DHT22;38593;52.670;6.286;2022-07-03T10:20:48;23.30;93.00
52697;DHT22;38593;52.670;6.286;2022-07-03T10:23:14;23.50;92.60
52697;DHT22;38593;52.670;6.286;2022-07-03T10:25:40;23.60;91.90
52697;DHT22;38593;52.670;6.286;2022-07-03T10:28:06;23.70;92.70
52697;DHT22;38593;52.670;6.286;2022-07-03T10:30:32;23.90;92.10
52697;DHT22;38593;52.670;6.286;2022-07-03T10:32:58;23.90;91.20
52697;DHT22;38593;52.670;6.286;2022-07-03T10:35:32;23.80;91.10
52697;DHT22;38593;52.670;6.286;2022-07-03T10:43:43;23.80;91.00
52697;DHT22;38593;52.670;6.286;2022-07-03T10:46:28;23.70;90.90
52697;DHT22;38593;52.670;6.286;2022-07-03T10:49:07;23.70;91.10
52697;DHT22;38593;52.670;6.286;2022-07-03T10:59:23;23.80;91.10
52697;DHT22;38593;52.670;6.286;2022-07-03T11:07:22;23.50;91.30
52697;DHT22;38593;52.670;6.286;2022-07-03T11:10:12;23.40;90.90
52697;DHT22;38593;52.670;6.286;2022-07-03T11:25:50;22.90;93.50
52697;DHT22;38593;52.670;6.286;2022-07-03T11:39:02;22.70;93.90
52697;DHT22;38593;52.670;6.286;2022-07-03T11:44:07;22.80;93.90
52697;DHT22;38593;52.670;6.286;2022-07-03T11:46:37;22.80;93.60
52697;DHT22;38593;52.670;6.286;2022-07-03T11:49:05;22.80;93.40
52697;DHT22;38593;52.670;6.286;2022-07-03T11:51:34;22.80;93.50
52697;DHT22;38593;52.670;6.286;2022-07-03T11:54:00;22.80;93.50
52697;DHT22;38593;52.670;6.286;2022-07-03T11:56:26;22.80;93.70
52697;DHT22;38593;52.670;6.286;2022-07-03T11:59:00;22.70;94.10
52697;DHT22;38593;52.670;6.286;2022-07-03T12:06:18;22.50;94.30
52697;DHT22;38593;52.670;6.286;2022-07-03T12:08:43;22.50;94.40
52697;DHT22;38593;52.670;6.286;2022-07-03T12:11:16;22.50;94.70
52697;DHT22;38593;52.670;6.286;2022-07-03T12:13:42;22.40;94.80
52697;DHT22;38593;52.670;6.286;2022-07-03T12:18:43;22.40;95.20
52697;DHT22;38593;52.670;6.286;2022-07-03T12:21:08;22.50;95.20
52697;DHT22;38593;52.670;6.286;2022-07-03T12:23:44;22.70;95.20
52697;DHT22;38593;52.670;6.286;2022-07-03T12:26:10;22.90;94.70
52697;DHT22;38593;52.670;6.286;2022-07-03T12:28:36;23.20;94.00
52697;DHT22;38593;52.670;6.286;2022-07-03T12:31:02;23.40;94.10
52697;DHT22;38593;52.670;6.286;2022-07-03T12:33:27;23.50;92.60
52697;DHT22;38593;52.670;6.286;2022-07-03T12:36:03;23.60;93.10
52697;DHT22;38593;52.670;6.286;2022-07-03T12:38:29;23.70;92.40
52697;DHT22;38593;52.670;6.286;2022-07-03T12:41:07;23.70;92.00
52697;DHT22;38593;52.670;6.286;2022-07-03T12:43:40;23.60;91.90
52697;DHT22;38593;52.670;6.286;2022-07-03T12:46:16;23.60;92.10
52697;DHT22;38593;52.670;6.286;2022-07-03T12:51:11;23.60;92.60
52697;DHT22;38593;52.670;6.286;2022-07-03T12:53:36;23.50;93.20
52697;DHT22;38593;52.670;6.286;2022-07-03T12:56:02;23.40;93.20
52697;DHT22;38593;52.670;6.286;2022-07-03T12:58:28;23.30;93.00
52697;DHT22;38593;52.670;6.286;2022-07-03T13:01:25;23.30;93.20
52697;DHT22;38593;52.670;6.286;2022-07-03T13:03:53;23.10;93.20
52697;DHT22;38593;52.670;6.286;2022-07-03T13:06:20;23.00;93.30
52697;DHT22;38593;52.670;6.286;2022-07-03T13:09:04;22.70;95.50
52697;DHT22;38593;52.670;6.286;2022-07-03T13:14:29;21.20;99.90
52697;DHT22;38593;52.670;6.286;2022-07-03T13:16:53;20.50;99.90
52697;DHT22;38593;52.670;6.286;2022-07-03T13:19:23;19.90;99.90
52697;DHT22;38593;52.670;6.286;2022-07-03T13:21:50;19.60;99.90
52697;DHT22;38593;52.670;6.286;2022-07-03T13:24:16;19.20;99.90
52697;DHT22;38593;52.670;6.286;2022-07-03T13:26:41;19.10;99.90
52697;DHT22;38593;52.670;6.286;2022-07-03T13:29:07;19.00;99.90
52697;DHT22;38593;52.670;6.286;2022-07-03T13:31:33;18.80;99.90
52697;DHT22;38593;52.670;6.286;2022-07-03T13:33:58;18.80;99.90
52697;DHT22;38593;52.670;6.286;2022-07-03T13:36:25;18.80;99.90
52697;DHT22;38593;52.670;6.286;2022-07-03T13:38:50;18.80;99.90
52697;DHT22;38593;52.670;6.286;2022-07-03T13:41:16;18.80;99.90
52697;DHT22;38593;52.670;6.286;2022-07-03T13:43:44;18.90;99.90
52697;DHT22;38593;52.670;6.286;2022-07-03T13:46:11;19.10;99.90
52697;DHT22;38593;52.670;6.286;2022-07-03T13:48:48;19.40;99.90
52697;DHT22;38593;52.670;6.286;2022-07-03T13:51:16;19.70;99.90
52697;DHT22;38593;52.670;6.286;2022-07-03T13:53:45;19.90;99.90
52697;DHT22;38593;52.670;6.286;2022-07-03T13:56:11;20.20;99.90
52697;DHT22;38593;52.670;6.286;2022-07-03T13:58:36;20.40;99.90
52697;DHT22;38593;52.670;6.286;2022-07-03T14:01:02;20.60;99.90
52697;DHT22;38593;52.670;6.286;2022-07-03T14:03:27;20.80;99.90
52697;DHT22;38593;52.670;6.286;2022-07-03T14:05:53;21.00;99.90
52697;DHT22;38593;52.670;6.286;2022-07-03T14:08:19;21.20;99.90
52697;DHT22;38593;52.670;6.286;2022-07-03T14:10:45;21.20;99.90
52697;DHT22;38593;52.670;6.286;2022-07-03T14:13:11;21.40;99.90
52697;DHT22;38593;52.670;6.286;2022-07-03T14:15:36;21.50;99.90
52697;DHT22;38593;52.670;6.286;2022-07-03T14:18:02;21.60;99.90
52697;DHT22;38593;52.670;6.286;2022-07-03T14:20:27;21.40;99.90
52697;DHT22;38593;52.670;6.286;2022-07-03T14:22:53;21.40;99.90
52697;DHT22;38593;52.670;6.286;2022-07-03T14:25:19;21.10;99.90
52697;DHT22;38593;52.670;6.286;2022-07-03T14:27:44;21.00;99.90
52697;DHT22;38593;52.670;6.286;2022-07-03T14:30:28;20.80;99.90
52697;DHT22;38593;52.670;6.286;2022-07-03T14:33:12;20.70;99.90
52697;DHT22;38593;52.670;6.286;2022-07-03T14:35:38;20.60;99.90
52697;DHT22;38593;52.670;6.286;2022-07-03T14:38:05;20.70;99.90
52697;DHT22;38593;52.670;6.286;2022-07-03T14:40:30;20.70;99.90
52697;DHT22;38593;52.670;6.286;2022-07-03T14:42:56;20.60;99.90
52697;DHT22;38593;52.670;6.286;2022-07-03T14:45:22;20.60;99.90
52697;DHT22;38593;52.670;6.286;2022-07-03T14:47:48;20.60;99.90
52697;DHT22;38593;52.670;6.286;2022-07-03T14:50:13;20.60;99.90
52697;DHT22;38593;52.670;6.286;2022-07-03T14:52:39;20.60;99.90
52697;DHT22;38593;52.670;6.286;2022-07-03T14:55:04;20.60;99.90
52697;DHT22;38593;52.670;6.286;2022-07-03T14:57:31;20.50;99.90
52697;DHT22;38593;52.670;6.286;2022-07-03T15:02:32;20.40;99.90
52697;DHT22;38593;52.670;6.286;2022-07-03T15:05:08;20.40;99.90
52697;DHT22;38593;52.670;6.286;2022-07-03T15:07:37;20.30;99.90
52697;DHT22;38593;52.670;6.286;2022-07-03T15:10:04;20.30;99.90
52697;DHT22;38593;52.670;6.286;2022-07-03T15:12:30;20.40;99.90
52697;DHT22;38593;52.670;6.286;2022-07-03T15:14:57;20.40;99.90
52697;DHT22;38593;52.670;6.286;2022-07-03T15:17:24;20.50;99.90
52697;DHT22;38593;52.670;6.286;2022-07-03T15:19:50;20.80;99.90
52697;DHT22;38593;52.670;6.286;2022-07-03T15:22:15;21.00;99.90
52697;DHT22;38593;52.670;6.286;2022-07-03T15:24:41;21.10;99.90
52697;DHT22;38593;52.670;6.286;2022-07-03T15:27:07;21.10;99.90
52697;DHT22;38593;52.670;6.286;2022-07-03T15:29:36;21.10;99.90
52697;DHT22;38593;52.670;6.286;2022-07-03T15:32:02;21.10;99.90
52697;DHT22;38593;52.670;6.286;2022-07-03T15:34:28;21.00;99.90
52697;DHT22;38593;52.670;6.286;2022-07-03T15:37:18;21.10;99.90
52697;DHT22;38593;52.670;6.286;2022-07-03T15:42:20;21.20;99.90
52697;DHT22;38593;52.670;6.286;2022-07-03T15:47:50;21.40;99.90
52697;DHT22;38593;52.670;6.286;2022-07-03T15:50:42;21.40;99.90
52697;DHT22;38593;52.670;6.286;2022-07-03T15:53:03;21.40;99.90
52697;DHT22;38593;52.670;6.286;2022-07-03T15:55:31;21.20;99.90
52697;DHT22;38593;52.670;6.286;2022-07-03T15:58:03;21.20;99.90
52697;DHT22;38593;52.670;6.286;2022-07-03T16:00:30;21.30;99.90
52697;DHT22;38593;52.670;6.286;2022-07-03T16:05:34;21.40;99.90
52697;DHT22;38593;52.670;6.286;2022-07-03T16:08:01;21.50;99.90
52697;DHT22;38593;52.670;6.286;2022-07-03T16:10:26;21.60;99.90
52697;DHT22;38593;52.670;6.286;2022-07-03T16:12:52;21.70;99.90
52697;DHT22;38593;52.670;6.286;2022-07-03T16:15:20;21.70;99.90
52697;DHT22;38593;52.670;6.286;2022-07-03T16:17:46;21.80;99.90
52697;DHT22;38593;52.670;6.286;2022-07-03T16:20:12;21.90;99.90
52697;DHT22;38593;52.670;6.286;2022-07-03T16:22:38;21.90;99.90
52697;DHT22;38593;52.670;6.286;2022-07-03T16:25:05;21.60;99.90
52697;DHT22;38593;52.670;6.286;2022-07-03T16:27:31;21.40;99.90
52697;DHT22;38593;52.670;6.286;2022-07-03T16:29:56;21.20;99.90
52697;DHT22;38593;52.670;6.286;2022-07-03T16:32:40;21.00;99.90
52697;DHT22;38593;52.670;6.286;2022-07-03T16:35:07;20.90;99.90
52697;DHT22;38593;52.670;6.286;2022-07-03T16:37:36;20.70;99.90
52697;DHT22;38593;52.670;6.286;2022-07-03T16:40:03;20.60;99.90
52697;DHT22;38593;52.670;6.286;2022-07-03T16:42:31;20.60;99.90
52697;DHT22;38593;52.670;6.286;2022-07-03T16:44:58;20.60;99.90
52697;DHT22;38593;52.670;6.286;2022-07-03T16:47:25;20.40;99.90
52697;DHT22;38593;52.670;6.286;2022-07-03T16:49:51;20.40;99.90
52697;DHT22;38593;52.670;6.286;2022-07-03T16:52:19;20.30;99.90
52697;DHT22;38593;52.670;6.286;2022-07-03T16:54:48;20.30;99.90
52697;DHT22;38593;52.670;6.286;2022-07-03T16:57:13;20.20;99.90
52697;DHT22;38593;52.670;6.286;2022-07-03T16:59:39;20.20;99.90
52697;DHT22;38593;52.670;6.286;2022-07-03T17:02:06;20.10;99.90
52697;DHT22;38593;52.670;6.286;2022-07-03T17:04:36;20.00;99.90
52697;DHT22;38593;52.670;6.286;2022-07-03T17:07:02;19.90;99.90
52697;DHT22;38593;52.670;6.286;2022-07-03T17:09:29;19.90;99.90